createdAt,value
2018-04-06T00:01:20.234Z,3.07
2018-04-06T00:03:45.966Z,3.06
2018-04-06T00:06:11.720Z,3.09
2018-04-06T00:08:37.674Z,3.00
2018-04-06T00:11:03.417Z,2.95
2018-04-06T00:13:29.129Z,3.06
2018-04-06T00:15:54.893Z,3.02
2018-04-06T00:18:20.622Z,2.98
2018-04-06T00:20:46.350Z,3.06
2018-04-06T00:23:12.100Z,3.02
2018-04-06T00:25:37.824Z,3.04
2018-04-06T00:28:04.886Z,3.05
2018-04-06T00:30:30.628Z,3.04
2018-04-06T00:32:56.559Z,3.05
2018-04-06T00:35:22.341Z,3.09
2018-04-06T00:37:48.085Z,3.12
2018-04-06T00:40:13.792Z,3.01
2018-04-06T00:42:39.518Z,3.01
2018-04-06T00:45:05.269Z,3.05
2018-04-06T00:47:31.077Z,3.08
2018-04-06T00:49:57.132Z,3.03
2018-04-06T00:52:22.864Z,2.97
2018-04-06T00:54:48.597Z,2.96
2018-04-06T00:57:14.344Z,2.93
2018-04-06T00:59:40.107Z,2.95
2018-04-06T01:02:05.853Z,2.99
2018-04-06T01:04:31.576Z,2.94
2018-04-06T01:06:57.302Z,2.90
2018-04-06T01:09:23.027Z,2.82
2018-04-06T01:11:48.778Z,2.82
2018-04-06T01:14:14.519Z,2.81
2018-04-06T01:16:40.259Z,2.73
2018-04-06T01:19:06.036Z,2.67
2018-04-06T01:21:31.779Z,2.70
2018-04-06T01:23:57.519Z,2.73
2018-04-06T01:26:23.279Z,2.69
2018-04-06T01:28:49.004Z,2.70
2018-04-06T01:31:14.726Z,2.65
2018-04-06T01:33:40.457Z,2.69
2018-04-06T01:36:06.187Z,2.67
2018-04-06T01:38:31.925Z,2.74
2018-04-06T01:40:57.646Z,2.75
2018-04-06T01:43:23.369Z,2.90
2018-04-06T01:45:49.098Z,2.90
2018-04-06T01:48:14.843Z,2.93
2018-04-06T01:50:40.582Z,3.04
2018-04-06T01:53:06.318Z,3.09
2018-04-06T01:55:32.051Z,3.03
2018-04-06T01:57:57.799Z,2.95
2018-04-06T02:00:23.553Z,2.95
2018-04-06T02:02:49.311Z,2.95
2018-04-06T02:05:15.058Z,2.96
2018-04-06T02:07:40.817Z,3.00
2018-04-06T02:10:06.574Z,2.93
2018-04-06T02:12:32.436Z,2.83
2018-04-06T02:14:58.174Z,2.90
2018-04-06T02:17:23.917Z,2.92
2018-04-06T02:19:49.652Z,2.83
2018-04-06T02:22:15.389Z,2.81
2018-04-06T02:24:41.184Z,2.93
2018-04-06T02:27:06.871Z,2.95
2018-04-06T02:29:32.608Z,3.00
2018-04-06T02:31:58.342Z,2.97
2018-04-06T02:34:24.087Z,2.97
2018-04-06T02:36:49.826Z,2.90
2018-04-06T02:39:15.570Z,2.94
2018-04-06T02:41:41.371Z,2.86
2018-04-06T02:44:07.098Z,2.87
2018-04-06T02:46:32.837Z,2.80
2018-04-06T02:48:58.581Z,2.76
2018-04-06T02:51:24.340Z,2.85
2018-04-06T02:53:50.093Z,2.90
2018-04-06T02:56:15.867Z,2.85
2018-04-06T02:58:41.618Z,2.81
2018-04-06T03:01:07.352Z,2.79
2018-04-06T03:03:33.085Z,2.81
2018-04-06T03:05:58.813Z,2.76
2018-04-06T03:08:24.554Z,2.80
2018-04-06T03:10:50.285Z,2.82
2018-04-06T03:13:16.043Z,2.80
2018-04-06T03:15:41.786Z,2.78
2018-04-06T03:18:07.514Z,2.78
2018-04-06T03:20:33.236Z,2.78
2018-04-06T03:22:58.972Z,2.77
2018-04-06T03:25:24.698Z,2.69
2018-04-06T03:27:50.472Z,2.65
2018-04-06T03:30:16.214Z,2.65
2018-04-06T03:32:41.950Z,2.67
2018-04-06T03:35:07.677Z,2.68
2018-04-06T03:37:33.416Z,2.68
2018-04-06T03:39:59.138Z,2.57
2018-04-06T03:42:24.890Z,2.64
2018-04-06T03:44:50.638Z,2.60
2018-04-06T03:47:16.450Z,2.63
2018-04-06T03:49:42.189Z,2.73
2018-04-06T03:52:07.930Z,2.81
2018-04-06T03:54:33.680Z,2.85
2018-04-06T03:56:59.409Z,2.80
2018-04-06T03:59:25.153Z,2.88
2018-04-06T04:01:50.870Z,2.90
2018-04-06T04:04:16.609Z,2.97
2018-04-06T04:06:42.345Z,2.96
2018-04-06T04:09:08.085Z,2.94
2018-04-06T04:11:33.822Z,3.06
2018-04-06T04:13:59.545Z,3.08
2018-04-06T04:16:25.287Z,3.07
2018-04-06T04:18:51.009Z,3.07
2018-04-06T04:21:16.729Z,3.07
2018-04-06T04:23:42.452Z,3.11
2018-04-06T04:26:08.179Z,3.05
2018-04-06T04:28:33.925Z,2.98
2018-04-06T04:30:59.649Z,3.01
2018-04-06T04:33:25.381Z,2.95
2018-04-06T04:35:51.159Z,2.87
2018-04-06T04:38:16.898Z,2.92
2018-04-06T04:40:42.617Z,2.89
2018-04-06T04:43:08.353Z,2.91
2018-04-06T04:45:34.078Z,2.94
2018-04-06T04:47:59.805Z,3.06
2018-04-06T04:50:25.564Z,3.06
2018-04-06T04:52:51.278Z,3.06
2018-04-06T04:55:17.029Z,3.11
2018-04-06T04:57:42.762Z,3.19
2018-04-06T05:00:08.505Z,3.23
2018-04-06T05:02:34.246Z,3.23
2018-04-06T05:04:59.981Z,3.30
2018-04-06T05:07:25.721Z,3.27
2018-04-06T05:09:51.462Z,3.23
2018-04-06T05:12:17.193Z,3.20
2018-04-06T05:14:42.952Z,3.26
2018-04-06T05:17:08.697Z,3.34
2018-04-06T05:19:34.459Z,3.36
2018-04-06T05:22:00.194Z,3.40
2018-04-06T05:24:25.988Z,3.50
2018-04-06T05:26:51.694Z,3.54
2018-04-06T05:29:17.451Z,3.54
2018-04-06T05:31:43.204Z,3.61
2018-04-06T05:34:08.966Z,3.62
2018-04-06T05:36:34.705Z,3.66
2018-04-06T05:39:00.449Z,3.68
2018-04-06T05:41:26.168Z,3.71
2018-04-06T05:43:51.908Z,3.70
2018-04-06T05:46:17.642Z,3.71
2018-04-06T05:48:43.390Z,3.78
2018-04-06T05:51:09.161Z,3.73
2018-04-06T05:53:34.906Z,3.80
2018-04-06T05:56:00.670Z,3.88
2018-04-06T05:58:26.397Z,3.93
2018-04-06T06:00:52.125Z,3.90
2018-04-06T06:03:17.846Z,3.94
2018-04-06T06:05:43.580Z,3.94
2018-04-06T06:08:09.294Z,3.97
2018-04-06T06:10:35.018Z,3.99
2018-04-06T06:13:00.737Z,4.01
2018-04-06T06:15:26.469Z,4.15
2018-04-06T06:17:52.226Z,3.98
2018-04-06T06:20:17.930Z,4.03
2018-04-06T06:22:43.646Z,4.13
2018-04-06T06:25:09.408Z,4.09
2018-04-06T06:27:35.139Z,4.34
2018-04-06T06:30:00.865Z,4.28
2018-04-06T06:32:26.586Z,4.26
2018-04-06T06:34:59.254Z,4.36
2018-04-06T06:37:24.977Z,4.35
2018-04-06T06:39:50.722Z,4.36
2018-04-06T06:42:16.445Z,4.37
2018-04-06T06:44:42.178Z,4.53
2018-04-06T06:47:08.022Z,4.70
2018-04-06T06:49:33.765Z,4.67
2018-04-06T06:51:59.506Z,4.66
2018-04-06T06:54:25.254Z,4.55
2018-04-06T06:56:50.964Z,4.56
2018-04-06T06:59:16.685Z,4.65
2018-04-06T07:01:42.406Z,4.70
2018-04-06T07:04:08.138Z,4.79
2018-04-06T07:06:33.879Z,4.68
2018-04-06T07:08:59.610Z,4.83
2018-04-06T07:11:25.338Z,4.85
2018-04-06T07:13:51.086Z,5.06
2018-04-06T07:16:16.823Z,5.33
2018-04-06T07:18:42.533Z,5.61
2018-04-06T07:21:08.257Z,5.28
2018-04-06T07:23:33.983Z,5.59
2018-04-06T07:25:59.720Z,5.60
2018-04-06T07:28:25.437Z,5.79
2018-04-06T07:30:51.170Z,6.01
2018-04-06T07:33:16.893Z,6.11
2018-04-06T07:35:42.627Z,6.29
2018-04-06T07:38:08.345Z,6.28
2018-04-06T07:40:34.093Z,5.78
2018-04-06T07:42:59.819Z,5.76
2018-04-06T07:45:32.354Z,5.96
2018-04-06T07:47:58.077Z,6.35
2018-04-06T07:50:24.914Z,6.80
2018-04-06T07:52:50.655Z,7.00
2018-04-06T07:55:16.401Z,6.98
2018-04-06T07:57:42.146Z,6.78
2018-04-06T08:00:07.898Z,6.22
2018-04-06T08:02:33.625Z,6.74
2018-04-06T08:04:59.370Z,7.50
2018-04-06T08:07:25.109Z,7.86
2018-04-06T08:09:50.850Z,7.85
2018-04-06T08:12:16.584Z,7.82
2018-04-06T08:14:42.308Z,7.92
2018-04-06T08:17:08.062Z,7.91
2018-04-06T08:19:33.794Z,8.09
2018-04-06T08:21:59.546Z,8.06
2018-04-06T08:24:25.295Z,8.52
2018-04-06T08:26:51.038Z,8.14
2018-04-06T08:29:16.759Z,8.26
2018-04-06T08:31:42.505Z,8.67
2018-04-06T08:34:08.239Z,8.89
2018-04-06T08:36:33.982Z,8.40
2018-04-06T08:38:59.734Z,8.81
2018-04-06T08:41:25.493Z,8.93
2018-04-06T08:43:51.230Z,8.39
2018-04-06T08:46:16.974Z,7.86
2018-04-06T08:48:42.715Z,8.14
2018-04-06T08:51:08.450Z,7.84
2018-04-06T08:53:34.186Z,8.11
2018-04-06T08:55:59.917Z,9.06
2018-04-06T08:58:25.634Z,9.68
2018-04-06T09:00:51.363Z,9.62
2018-04-06T09:03:17.082Z,9.34
2018-04-06T09:05:42.819Z,8.27
2018-04-06T09:08:08.530Z,8.76
2018-04-06T09:10:34.253Z,8.93
2018-04-06T09:12:59.979Z,9.16
2018-04-06T09:15:25.725Z,9.74
2018-04-06T09:17:51.442Z,9.74
2018-04-06T09:20:17.163Z,9.89
2018-04-06T09:22:42.909Z,9.61
2018-04-06T09:25:09.875Z,10.10
2018-04-06T09:27:35.602Z,9.81
2018-04-06T09:30:01.329Z,9.77
2018-04-06T09:32:27.058Z,9.82
2018-04-06T09:34:53.144Z,9.18
2018-04-06T09:37:18.903Z,8.83
2018-04-06T09:39:44.633Z,8.62
2018-04-06T09:42:10.375Z,9.56
2018-04-06T09:44:37.722Z,10.10
2018-04-06T09:47:03.453Z,10.43
2018-04-06T09:49:29.575Z,10.59
2018-04-06T09:51:55.681Z,10.82
2018-04-06T09:54:21.965Z,10.84
2018-04-06T09:56:47.741Z,10.64
2018-04-06T09:59:13.923Z,10.60
2018-04-06T10:01:40.159Z,10.58
2018-04-06T10:04:05.929Z,10.20
2018-04-06T10:06:32.879Z,9.65
2018-04-06T10:08:58.673Z,9.79
2018-04-06T10:11:24.425Z,9.71
2018-04-06T10:13:50.538Z,8.86
2018-04-06T10:16:16.305Z,9.31
2018-04-06T10:18:41.997Z,9.36
2018-04-06T10:21:08.150Z,9.99
2018-04-06T10:23:34.188Z,10.50
2018-04-06T10:25:59.954Z,10.69
2018-04-06T10:28:25.699Z,10.89
2018-04-06T10:30:51.424Z,9.47
2018-04-06T10:33:17.185Z,10.86
2018-04-06T10:35:42.943Z,11.48
2018-04-06T10:38:08.670Z,11.87
2018-04-06T10:40:34.383Z,11.64
2018-04-06T10:43:00.173Z,11.71
2018-04-06T10:45:25.988Z,11.77
2018-04-06T10:47:51.740Z,10.89
2018-04-06T10:50:17.491Z,11.08
2018-04-06T10:52:43.275Z,11.69
2018-04-06T10:55:09.093Z,11.61
2018-04-06T10:57:34.837Z,11.81
2018-04-06T11:00:00.571Z,11.92
2018-04-06T11:02:26.314Z,11.95
2018-04-06T11:04:52.046Z,12.25
2018-04-06T11:07:17.791Z,11.11
2018-04-06T11:09:43.540Z,10.71
2018-04-06T11:12:09.287Z,11.08
2018-04-06T11:14:35.035Z,11.71
2018-04-06T11:17:00.777Z,11.97
2018-04-06T11:19:26.530Z,12.53
2018-04-06T11:21:52.273Z,12.31
2018-04-06T11:24:18.042Z,12.12
2018-04-06T11:26:43.811Z,11.70
2018-04-06T11:29:09.559Z,11.48
2018-04-06T11:31:35.314Z,12.05
2018-04-06T11:34:01.046Z,12.83
2018-04-06T11:36:26.778Z,12.46
2018-04-06T11:38:52.528Z,12.56
2018-04-06T11:41:18.257Z,12.49
2018-04-06T11:43:44.002Z,12.04
2018-04-06T11:46:09.756Z,12.52
2018-04-06T11:48:35.501Z,11.64
2018-04-06T11:51:01.242Z,12.12
2018-04-06T11:53:26.994Z,12.37
2018-04-06T11:55:52.728Z,11.88
2018-04-06T11:58:18.470Z,12.10
2018-04-06T12:00:44.210Z,12.07
2018-04-06T12:03:09.950Z,12.85
2018-04-06T12:05:35.686Z,12.96
2018-04-06T12:08:01.423Z,13.19
2018-04-06T12:10:27.158Z,13.15
2018-04-06T12:12:52.906Z,12.36
2018-04-06T12:15:18.653Z,12.94
2018-04-06T12:17:44.408Z,10.85
2018-04-06T12:20:10.146Z,12.42
2018-04-06T12:22:35.886Z,13.31
2018-04-06T12:25:01.618Z,12.82
2018-04-06T12:27:27.358Z,13.83
2018-04-06T12:29:53.088Z,13.10
2018-04-06T12:32:18.839Z,13.43
2018-04-06T12:34:45.097Z,13.72
2018-04-06T12:37:10.862Z,13.65
2018-04-06T12:39:36.586Z,13.22
2018-04-06T12:42:02.323Z,12.47
2018-04-06T12:44:28.062Z,12.76
2018-04-06T12:46:53.789Z,12.99
2018-04-06T12:49:19.527Z,12.82
2018-04-06T12:51:45.262Z,13.14
2018-04-06T12:54:11.005Z,13.12
2018-04-06T12:56:36.727Z,13.28
2018-04-06T12:59:02.474Z,12.27
2018-04-06T13:01:28.209Z,12.82
2018-04-06T13:03:53.950Z,12.69
2018-04-06T13:06:19.686Z,12.84
2018-04-06T13:08:45.410Z,12.94
2018-04-06T13:11:11.138Z,13.97
2018-04-06T13:13:36.868Z,13.21
2018-04-06T13:16:02.593Z,12.93
2018-04-06T13:18:28.325Z,13.15
2018-04-06T13:20:54.063Z,13.54
2018-04-06T13:23:19.821Z,13.48
2018-04-06T13:25:45.518Z,13.89
2018-04-06T13:28:11.257Z,14.23
2018-04-06T13:30:36.998Z,13.50
2018-04-06T13:33:02.725Z,13.11
2018-04-06T13:35:28.458Z,13.36
2018-04-06T13:37:54.202Z,13.90
2018-04-06T13:40:19.921Z,13.55
2018-04-06T13:42:45.658Z,12.90
2018-04-06T13:45:11.382Z,12.57
2018-04-06T13:47:37.102Z,13.28
2018-04-06T13:50:02.846Z,13.27
2018-04-06T13:52:28.575Z,13.29
2018-04-06T13:54:54.374Z,13.50
2018-04-06T13:57:20.074Z,13.70
2018-04-06T13:59:45.810Z,13.26
2018-04-06T14:02:11.538Z,13.21
2018-04-06T14:04:37.281Z,13.28
2018-04-06T14:07:03.010Z,13.11
2018-04-06T14:09:28.749Z,12.83
2018-04-06T14:11:54.479Z,12.41
2018-04-06T14:14:20.219Z,13.24
2018-04-06T14:16:45.937Z,12.05
2018-04-06T14:19:11.681Z,12.24
2018-04-06T14:21:37.405Z,13.41
2018-04-06T14:24:03.138Z,12.88
2018-04-06T14:26:28.870Z,13.03
2018-04-06T14:28:54.602Z,12.93
2018-04-06T14:31:20.354Z,12.60
2018-04-06T14:33:46.089Z,12.64
2018-04-06T14:36:11.817Z,12.93
2018-04-06T14:38:37.566Z,12.42
2018-04-06T14:41:03.305Z,12.66
2018-04-06T14:43:29.046Z,12.58
2018-04-06T14:45:54.765Z,12.81
2018-04-06T14:48:20.518Z,12.37
2018-04-06T14:50:46.241Z,12.06
2018-04-06T14:53:11.971Z,12.19
2018-04-06T14:55:37.718Z,12.45
2018-04-06T14:58:03.462Z,12.56
2018-04-06T15:00:29.198Z,12.64
2018-04-06T15:02:54.925Z,12.54
2018-04-06T15:05:20.667Z,12.98
2018-04-06T15:07:46.388Z,12.49
2018-04-06T15:10:12.138Z,12.40
2018-04-06T15:12:37.930Z,12.36
2018-04-06T15:15:03.674Z,12.44
2018-04-06T15:17:29.396Z,12.21
2018-04-06T15:19:55.147Z,12.15
2018-04-06T15:22:20.877Z,12.21
2018-04-06T15:24:46.621Z,12.15
2018-04-06T15:27:12.355Z,12.11
2018-04-06T15:29:38.132Z,12.19
2018-04-06T15:32:03.879Z,12.17
2018-04-06T15:34:29.625Z,12.03
2018-04-06T15:36:55.356Z,12.25
2018-04-06T15:39:21.119Z,12.11
2018-04-06T15:41:46.853Z,12.07
2018-04-06T15:44:12.602Z,12.19
2018-04-06T15:46:38.347Z,12.33
2018-04-06T15:49:04.105Z,12.11
2018-04-06T15:51:29.855Z,11.93
2018-04-06T15:53:55.609Z,11.93
2018-04-06T15:56:21.331Z,11.91
2018-04-06T15:58:48.233Z,11.86
2018-04-06T16:01:14.126Z,11.87
2018-04-06T16:03:39.859Z,11.83
2018-04-06T16:06:05.576Z,11.83
2018-04-06T16:08:31.305Z,11.79
2018-04-06T16:10:57.049Z,11.97
2018-04-06T16:13:22.777Z,11.91
2018-04-06T16:15:48.505Z,11.89
2018-04-06T16:18:14.250Z,11.89
2018-04-06T16:20:39.988Z,11.96
2018-04-06T16:23:05.732Z,12.03
2018-04-06T16:25:31.462Z,12.14
2018-04-06T16:27:57.197Z,12.38
2018-04-06T16:30:22.929Z,12.20
2018-04-06T16:32:48.675Z,12.04
2018-04-06T16:35:14.722Z,12.12
2018-04-06T16:37:40.456Z,12.06
2018-04-06T16:40:06.194Z,12.13
2018-04-06T16:42:31.928Z,12.06
2018-04-06T16:44:57.678Z,12.05
2018-04-06T16:47:23.463Z,11.99
2018-04-06T16:49:49.168Z,11.95
2018-04-06T16:52:14.934Z,11.80
2018-04-06T16:54:40.637Z,11.75
2018-04-06T16:57:06.357Z,11.72
2018-04-06T16:59:32.148Z,11.70
2018-04-06T17:01:57.848Z,11.60
2018-04-06T17:04:23.568Z,11.53
2018-04-06T17:06:49.312Z,11.45
2018-04-06T17:09:15.038Z,11.38
2018-04-06T17:11:40.782Z,11.27
2018-04-06T17:14:06.517Z,11.12
2018-04-06T17:16:32.259Z,11.06
2018-04-06T17:18:57.985Z,11.00
2018-04-06T17:21:23.726Z,10.96
2018-04-06T17:23:49.463Z,10.86
2018-04-06T17:26:15.195Z,10.79
2018-04-06T17:28:40.930Z,10.71
2018-04-06T17:31:06.657Z,10.58
2018-04-06T17:33:32.390Z,10.45
2018-04-06T17:35:58.118Z,10.39
2018-04-06T17:38:23.838Z,10.27
2018-04-06T17:40:49.582Z,10.27
2018-04-06T17:43:15.322Z,10.25
2018-04-06T17:45:41.039Z,10.17
2018-04-06T17:48:06.766Z,10.11
2018-04-06T17:50:32.498Z,10.00
2018-04-06T17:52:58.219Z,9.96
2018-04-06T17:55:24.028Z,9.81
2018-04-06T17:57:49.766Z,9.75
2018-04-06T18:00:15.513Z,9.62
2018-04-06T18:02:41.262Z,9.66
2018-04-06T18:05:07.009Z,9.54
2018-04-06T18:07:32.754Z,9.42
2018-04-06T18:09:58.491Z,9.32
2018-04-06T18:12:24.234Z,9.36
2018-04-06T18:14:50.010Z,9.22
2018-04-06T18:17:15.751Z,9.24
2018-04-06T18:19:41.489Z,9.23
2018-04-06T18:22:07.236Z,9.18
2018-04-06T18:24:32.969Z,9.13
2018-04-06T18:26:58.714Z,8.99
2018-04-06T18:29:24.444Z,8.95
2018-04-06T18:31:50.194Z,8.87
2018-04-06T18:34:15.938Z,8.83
2018-04-06T18:36:41.691Z,8.87
2018-04-06T18:39:07.429Z,8.80
2018-04-06T18:41:33.179Z,8.64
2018-04-06T18:43:58.930Z,8.49
2018-04-06T18:46:24.673Z,8.47
2018-04-06T18:48:50.419Z,8.41
2018-04-06T18:51:16.211Z,8.45
2018-04-06T18:53:41.946Z,8.52
2018-04-06T18:56:07.691Z,8.48
2018-04-06T18:58:33.452Z,8.27
2018-04-06T19:00:59.157Z,8.21
2018-04-06T19:03:24.889Z,8.13
2018-04-06T19:05:50.621Z,8.07
2018-04-06T19:08:16.392Z,8.03
2018-04-06T19:10:42.137Z,8.06
2018-04-06T19:13:07.858Z,7.97
2018-04-06T19:15:33.582Z,7.97
2018-04-06T19:17:59.314Z,7.88
2018-04-06T19:20:25.033Z,7.90
2018-04-06T19:22:50.773Z,7.78
2018-04-06T19:25:16.493Z,7.67
2018-04-06T19:27:42.216Z,7.68
2018-04-06T19:30:08.030Z,7.62
2018-04-06T19:32:33.766Z,7.58
2018-04-06T19:34:59.492Z,7.60
2018-04-06T19:37:25.226Z,7.56
2018-04-06T19:39:50.962Z,7.58
2018-04-06T19:42:16.705Z,7.51
2018-04-06T19:44:42.434Z,7.48
2018-04-06T19:47:08.166Z,7.38
2018-04-06T19:49:33.934Z,7.39
2018-04-06T19:51:59.665Z,7.31
2018-04-06T19:54:25.396Z,7.31
2018-04-06T19:56:51.133Z,7.25
2018-04-06T19:59:16.863Z,7.19
2018-04-06T20:01:42.620Z,7.22
2018-04-06T20:04:08.385Z,7.26
2018-04-06T20:06:34.110Z,7.25
2018-04-06T20:08:59.893Z,7.19
2018-04-06T20:11:25.557Z,7.18
2018-04-06T20:13:51.273Z,7.16
2018-04-06T20:16:17.002Z,7.13
2018-04-06T20:18:42.729Z,7.13
2018-04-06T20:21:08.455Z,7.06
2018-04-06T20:23:34.194Z,7.02
2018-04-06T20:25:59.913Z,7.00
2018-04-06T20:28:25.642Z,7.03
2018-04-06T20:30:51.379Z,7.05
2018-04-06T20:33:17.104Z,7.00
2018-04-06T20:35:42.825Z,7.00
2018-04-06T20:38:08.570Z,7.10
2018-04-06T20:40:34.304Z,7.12
2018-04-06T20:43:00.039Z,7.24
2018-04-06T20:45:25.761Z,7.23
2018-04-06T20:47:51.508Z,7.25
2018-04-06T20:50:17.265Z,7.19
2018-04-06T20:52:42.986Z,7.18
2018-04-06T20:55:08.734Z,7.16
2018-04-06T20:57:34.485Z,7.16
2018-04-06T21:00:00.225Z,7.13
2018-04-06T21:02:25.975Z,7.07
2018-04-06T21:04:51.710Z,7.04
2018-04-06T21:07:17.445Z,7.00
2018-04-06T21:09:43.169Z,6.99
2018-04-06T21:12:08.914Z,6.93
2018-04-06T21:14:34.675Z,6.92
2018-04-06T21:17:00.426Z,6.91
2018-04-06T21:19:26.162Z,6.90
2018-04-06T21:21:51.934Z,6.94
2018-04-06T21:24:17.670Z,6.92
2018-04-06T21:26:43.406Z,6.93
2018-04-06T21:29:09.178Z,6.99
2018-04-06T21:31:34.973Z,6.97
2018-04-06T21:34:00.662Z,6.92
2018-04-06T21:36:26.381Z,6.93
2018-04-06T21:38:52.121Z,6.91
2018-04-06T21:41:17.859Z,6.88
2018-04-06T21:43:43.602Z,6.89
2018-04-06T21:46:09.334Z,6.88
2018-04-06T21:48:35.085Z,6.92
2018-04-06T21:51:00.824Z,6.98
2018-04-06T21:53:26.674Z,7.07
2018-04-06T21:55:52.427Z,7.16
2018-04-06T21:58:18.184Z,7.19
2018-04-06T22:00:43.959Z,7.15
2018-04-06T22:03:09.665Z,7.13
2018-04-06T22:05:35.397Z,7.22
2018-04-06T22:08:01.127Z,7.24
2018-04-06T22:10:26.906Z,7.28
2018-04-06T22:12:52.652Z,7.28
2018-04-06T22:15:18.381Z,7.18
2018-04-06T22:17:44.109Z,7.26
2018-04-06T22:20:09.827Z,7.22
2018-04-06T22:22:35.558Z,7.39
2018-04-06T22:25:01.298Z,7.28
2018-04-06T22:27:27.093Z,7.21
2018-04-06T22:29:52.839Z,7.27
2018-04-06T22:32:18.583Z,7.35
2018-04-06T22:34:44.333Z,7.27
2018-04-06T22:37:10.068Z,7.37
2018-04-06T22:39:35.794Z,7.39
2018-04-06T22:42:01.536Z,7.44
2018-04-06T22:44:27.265Z,7.51
2018-04-06T22:46:52.977Z,7.50
2018-04-06T22:49:19.519Z,7.39
2018-04-06T22:51:45.249Z,7.38
2018-04-06T22:54:10.997Z,7.38
2018-04-06T22:56:36.725Z,7.40
2018-04-06T22:59:02.464Z,7.43
2018-04-06T23:01:28.190Z,7.36
2018-04-06T23:03:53.942Z,7.35
2018-04-06T23:06:19.662Z,7.39
2018-04-06T23:08:45.414Z,7.30
2018-04-06T23:11:11.158Z,7.27
2018-04-06T23:13:36.892Z,7.26
2018-04-06T23:16:02.680Z,7.15
2018-04-06T23:18:28.465Z,7.15
2018-04-06T23:20:54.198Z,7.21
2018-04-06T23:23:19.950Z,7.15
2018-04-06T23:25:45.686Z,7.11
2018-04-06T23:28:11.430Z,7.05
2018-04-06T23:30:37.162Z,6.94
2018-04-06T23:33:02.914Z,6.95
2018-04-06T23:35:28.654Z,6.91
2018-04-06T23:37:54.545Z,6.86
2018-04-06T23:40:20.275Z,6.85
2018-04-06T23:42:46.047Z,6.83
2018-04-06T23:45:11.792Z,6.78
2018-04-06T23:47:37.517Z,6.77
2018-04-06T23:50:03.253Z,6.76
2018-04-06T23:52:29.221Z,6.66
2018-04-06T23:54:54.981Z,6.63
2018-04-06T23:57:20.714Z,6.68
2018-04-06T23:59:46.461Z,6.58
